sensor_id;sensor_type;location;lat;lon;timestamp;pressure;altitude;pressure_sealevel;temperature;humidity
13209;BME280;6669;42.678;23.332;2022-12-18T00:01:30;95179.06;;;5.20;100.00
13209;BME280;6669;42.678;23.332;2022-12-18T00:04:01;95194.97;;;5.26;100.00
13209;BME280;6669;42.678;23.332;2022-12-18T00:06:30;95197.81;;;5.22;100.00
13209;BME280;6669;42.678;23.332;2022-12-18T00:08:59;95208.88;;;5.13;100.00
13209;BME280;6669;42.678;23.332;2022-12-18T00:11:30;95209.38;;;5.07;100.00
13209;BME280;6669;42.678;23.332;2022-12-18T00:13:59;95208.16;;;4.90;100.00
13209;BME280;6669;42.678;23.332;2022-12-18T00:16:29;95199.38;;;4.93;100.00
13209;BME280;6669;42.678;23.332;2022-12-18T00:19:00;95201.59;;;4.86;100.00
13209;BME280;6669;42.678;23.332;2022-12-18T00:21:29;95212.78;;;4.96;100.00
13209;BME280;6669;42.678;23.332;2022-12-18T00:23:58;95206.84;;;4.96;100.00
13209;BME280;6669;42.678;23.332;2022-12-18T00:26:29;95221.94;;;5.00;100.00
13209;BME280;6669;42.678;23.332;2022-12-18T00:29:00;95213.19;;;4.91;100.00
13209;BME280;6669;42.678;23.332;2022-12-18T00:31:31;95216.47;;;4.82;100.00
13209;BME280;6669;42.678;23.332;2022-12-18T00:33:59;95218.38;;;4.80;100.00
13209;BME280;6669;42.678;23.332;2022-12-18T00:36:29;95221.16;;;4.77;100.00
13209;BME280;6669;42.678;23.332;2022-12-18T00:38:58;95222.81;;;4.78;100.00
13209;BME280;6669;42.678;23.332;2022-12-18T00:41:27;95228.28;;;4.85;100.00
13209;BME280;6669;42.678;23.332;2022-12-18T00:44:16;95229.97;;;4.74;100.00
13209;BME280;6669;42.678;23.332;2022-12-18T00:46:45;95245.78;;;4.70;100.00
13209;BME280;6669;42.678;23.332;2022-12-18T00:49:14;95236.31;;;4.59;100.00
13209;BME280;6669;42.678;23.332;2022-12-18T00:51:42;95251.66;;;4.49;100.00
13209;BME280;6669;42.678;23.332;2022-12-18T00:54:13;95253.19;;;4.52;100.00
13209;BME280;6669;42.678;23.332;2022-12-18T00:56:41;95215.38;;;4.52;100.00
13209;BME280;6669;42.678;23.332;2022-12-18T00:59:18;95233.44;;;4.41;100.00
13209;BME280;6669;42.678;23.332;2022-12-18T01:01:46;95249.56;;;4.43;100.00
13209;BME280;6669;42.678;23.332;2022-12-18T01:04:15;95248.41;;;4.47;100.00
13209;BME280;6669;42.678;23.332;2022-12-18T01:06:43;95257.06;;;4.46;100.00
13209;BME280;6669;42.678;23.332;2022-12-18T01:09:11;95241.97;;;4.30;100.00
13209;BME280;6669;42.678;23.332;2022-12-18T01:11:39;95252.84;;;4.34;100.00
13209;BME280;6669;42.678;23.332;2022-12-18T01:14:08;95267.59;;;4.32;100.00
13209;BME280;6669;42.678;23.332;2022-12-18T01:16:37;95260.34;;;4.14;100.00
13209;BME280;6669;42.678;23.332;2022-12-18T01:19:06;95279.16;;;4.15;100.00
13209;BME280;6669;42.678;23.332;2022-12-18T01:21:34;95289.09;;;4.08;100.00
13209;BME280;6669;42.678;23.332;2022-12-18T01:24:02;95274.00;;;4.03;100.00
13209;BME280;6669;42.678;23.332;2022-12-18T01:26:30;95274.59;;;3.96;100.00
13209;BME280;6669;42.678;23.332;2022-12-18T01:28:58;95277.63;;;3.78;100.00
13209;BME280;6669;42.678;23.332;2022-12-18T01:31:28;95270.81;;;3.77;100.00
13209;BME280;6669;42.678;23.332;2022-12-18T01:34:00;95278.88;;;3.72;100.00
13209;BME280;6669;42.678;23.332;2022-12-18T01:36:30;95282.97;;;3.75;100.00
13209;BME280;6669;42.678;23.332;2022-12-18T01:39:00;95302.63;;;3.76;100.00
13209;BME280;6669;42.678;23.332;2022-12-18T01:41:31;95286.59;;;3.72;100.00
13209;BME280;6669;42.678;23.332;2022-12-18T01:44:51;95290.34;;;3.80;100.00
13209;BME280;6669;42.678;23.332;2022-12-18T01:47:23;95284.72;;;3.74;100.00
13209;BME280;6669;42.678;23.332;2022-12-18T01:49:54;95295.63;;;3.78;100.00
13209;BME280;6669;42.678;23.332;2022-12-18T01:52:24;95297.34;;;3.78;100.00
13209;BME280;6669;42.678;23.332;2022-12-18T01:54:54;95300.50;;;3.70;100.00
13209;BME280;6669;42.678;23.332;2022-12-18T01:57:23;95287.28;;;3.63;100.00
13209;BME280;6669;42.678;23.332;2022-12-18T01:59:54;95284.34;;;3.68;100.00
13209;BME280;6669;42.678;23.332;2022-12-18T02:02:26;95292.75;;;3.58;100.00
13209;BME280;6669;42.678;23.332;2022-12-18T02:04:58;95276.25;;;3.50;100.00
13209;BME280;6669;42.678;23.332;2022-12-18T02:07:33;95299.28;;;3.63;100.00
13209;BME280;6669;42.678;23.332;2022-12-18T02:10:12;95295.06;;;3.50;100.00
13209;BME280;6669;42.678;23.332;2022-12-18T02:12:48;95306.91;;;3.64;100.00
13209;BME280;6669;42.678;23.332;2022-12-18T02:15:21;95311.94;;;3.66;100.00
13209;BME280;6669;42.678;23.332;2022-12-18T02:17:55;95315.19;;;3.68;100.00
13209;BME280;6669;42.678;23.332;2022-12-18T02:20:33;95307.56;;;3.55;100.00
13209;BME280;6669;42.678;23.332;2022-12-18T02:23:08;95299.97;;;3.53;100.00
13209;BME280;6669;42.678;23.332;2022-12-18T02:25:56;95292.69;;;3.47;100.00
13209;BME280;6669;42.678;23.332;2022-12-18T02:28:30;95331.41;;;3.57;100.00
13209;BME280;6669;42.678;23.332;2022-12-18T02:31:01;95324.63;;;3.56;100.00
13209;BME280;6669;42.678;23.332;2022-12-18T02:33:33;95314.59;;;3.53;100.00
13209;BME280;6669;42.678;23.332;2022-12-18T02:36:04;95307.81;;;3.52;100.00
13209;BME280;6669;42.678;23.332;2022-12-18T02:38:33;95319.28;;;3.59;100.00
13209;BME280;6669;42.678;23.332;2022-12-18T02:41:05;95329.34;;;3.62;100.00
13209;BME280;6669;42.678;23.332;2022-12-18T02:43:33;95331.19;;;3.60;100.00
13209;BME280;6669;42.678;23.332;2022-12-18T02:46:29;95314.78;;;3.50;100.00
13209;BME280;6669;42.678;23.332;2022-12-18T02:49:06;95332.47;;;3.54;100.00
13209;BME280;6669;42.678;23.332;2022-12-18T02:51:46;95327.44;;;3.53;100.00
13209;BME280;6669;42.678;23.332;2022-12-18T02:54:23;95318.47;;;3.34;100.00
13209;BME280;6669;42.678;23.332;2022-12-18T02:56:57;95324.34;;;3.36;100.00
13209;BME280;6669;42.678;23.332;2022-12-18T02:59:32;95331.56;;;3.31;100.00
13209;BME280;6669;42.678;23.332;2022-12-18T03:02:09;95322.56;;;3.37;100.00
13209;BME280;6669;42.678;23.332;2022-12-18T03:04:47;95329.69;;;3.33;100.00
13209;BME280;6669;42.678;23.332;2022-12-18T03:07:21;95348.63;;;3.43;100.00
13209;BME280;6669;42.678;23.332;2022-12-18T03:09:51;95338.91;;;3.36;100.00
13209;BME280;6669;42.678;23.332;2022-12-18T03:12:27;95340.78;;;3.34;100.00
13209;BME280;6669;42.678;23.332;2022-12-18T03:15:03;95325.16;;;3.13;100.00
13209;BME280;6669;42.678;23.332;2022-12-18T03:17:33;95357.44;;;3.28;100.00
13209;BME280;6669;42.678;23.332;2022-12-18T03:20:06;95338.06;;;3.24;100.00
13209;BME280;6669;42.678;23.332;2022-12-18T03:22:37;95351.94;;;3.21;100.00
13209;BME280;6669;42.678;23.332;2022-12-18T03:25:08;95354.19;;;3.26;100.00
13209;BME280;6669;42.678;23.332;2022-12-18T03:27:43;95335.72;;;3.21;100.00
13209;BME280;6669;42.678;23.332;2022-12-18T03:30:15;95354.28;;;3.24;100.00
13209;BME280;6669;42.678;23.332;2022-12-18T03:32:47;95372.66;;;3.31;100.00
13209;BME280;6669;42.678;23.332;2022-12-18T03:35:20;95348.44;;;3.22;100.00
13209;BME280;6669;42.678;23.332;2022-12-18T03:37:49;95359.41;;;3.24;100.00
13209;BME280;6669;42.678;23.332;2022-12-18T03:40:19;95371.13;;;3.29;100.00
13209;BME280;6669;42.678;23.332;2022-12-18T03:42:52;95390.31;;;3.36;100.00
13209;BME280;6669;42.678;23.332;2022-12-18T03:45:28;95404.44;;;3.30;100.00
13209;BME280;6669;42.678;23.332;2022-12-18T03:48:02;95397.63;;;3.29;100.00
13209;BME280;6669;42.678;23.332;2022-12-18T03:50:38;95397.75;;;3.27;100.00
13209;BME280;6669;42.678;23.332;2022-12-18T03:53:19;95392.44;;;3.18;100.00
13209;BME280;6669;42.678;23.332;2022-12-18T03:55:51;95417.69;;;3.24;100.00
13209;BME280;6669;42.678;23.332;2022-12-18T03:58:23;95408.84;;;3.28;100.00
13209;BME280;6669;42.678;23.332;2022-12-18T04:00:54;95414.91;;;3.27;100.00
13209;BME280;6669;42.678;23.332;2022-12-18T04:03:24;95420.03;;;3.27;100.00
13209;BME280;6669;42.678;23.332;2022-12-18T04:05:54;95404.97;;;3.22;100.00
13209;BME280;6669;42.678;23.332;2022-12-18T04:08:23;95429.28;;;3.30;100.00
13209;BME280;6669;42.678;23.332;2022-12-18T04:10:52;95408.25;;;3.11;100.00
13209;BME280;6669;42.678;23.332;2022-12-18T04:13:28;95417.94;;;3.08;100.00
13209;BME280;6669;42.678;23.332;2022-12-18T04:15:56;95428.00;;;3.11;100.00
13209;BME280;6669;42.678;23.332;2022-12-18T04:18:25;95418.78;;;2.96;100.00
13209;BME280;6669;42.678;23.332;2022-12-18T04:20:53;95437.03;;;3.17;100.00
13209;BME280;6669;42.678;23.332;2022-12-18T04:23:21;95441.59;;;3.13;100.00
13209;BME280;6669;42.678;23.332;2022-12-18T04:25:49;95439.44;;;3.07;100.00
13209;BME280;6669;42.678;23.332;2022-12-18T04:28:17;95443.53;;;3.09;100.00
13209;BME280;6669;42.678;23.332;2022-12-18T04:30:48;95448.75;;;3.08;100.00
13209;BME280;6669;42.678;23.332;2022-12-18T04:33:16;95451.53;;;3.05;100.00
13209;BME280;6669;42.678;23.332;2022-12-18T04:35:44;95477.97;;;3.07;100.00
13209;BME280;6669;42.678;23.332;2022-12-18T04:38:12;95473.94;;;3.03;100.00
13209;BME280;6669;42.678;23.332;2022-12-18T04:40:41;95468.50;;;2.94;100.00
13209;BME280;6669;42.678;23.332;2022-12-18T04:43:09;95485.25;;;3.00;100.00
13209;BME280;6669;42.678;23.332;2022-12-18T04:45:37;95472.41;;;2.87;100.00
13209;BME280;6669;42.678;23.332;2022-12-18T04:48:07;95469.22;;;2.84;100.00
13209;BME280;6669;42.678;23.332;2022-12-18T04:50:36;95486.59;;;2.93;100.00
13209;BME280;6669;42.678;23.332;2022-12-18T04:53:04;95479.09;;;2.90;100.00
13209;BME280;6669;42.678;23.332;2022-12-18T04:55:32;95490.19;;;2.90;100.00
13209;BME280;6669;42.678;23.332;2022-12-18T04:58:00;95497.50;;;2.97;100.00
13209;BME280;6669;42.678;23.332;2022-12-18T05:00:28;95511.03;;;2.86;100.00
13209;BME280;6669;42.678;23.332;2022-12-18T05:02:56;95505.09;;;2.85;100.00
13209;BME280;6669;42.678;23.332;2022-12-18T05:05:26;95502.94;;;2.79;100.00
13209;BME280;6669;42.678;23.332;2022-12-18T05:07:54;95513.50;;;2.87;100.00
13209;BME280;6669;42.678;23.332;2022-12-18T05:10:22;95514.63;;;2.83;100.00
13209;BME280;6669;42.678;23.332;2022-12-18T05:12:50;95532.81;;;2.80;100.00
13209;BME280;6669;42.678;23.332;2022-12-18T05:15:28;95550.56;;;2.70;100.00
13209;BME280;6669;42.678;23.332;2022-12-18T05:17:57;95537.31;;;2.64;100.00
13209;BME280;6669;42.678;23.332;2022-12-18T05:20:28;95544.41;;;2.60;100.00
13209;BME280;6669;42.678;23.332;2022-12-18T05:22:56;95511.00;;;2.47;100.00
13209;BME280;6669;42.678;23.332;2022-12-18T05:25:25;95543.47;;;2.61;100.00
13209;BME280;6669;42.678;23.332;2022-12-18T05:27:53;95541.50;;;2.65;100.00
13209;BME280;6669;42.678;23.332;2022-12-18T05:30:21;95545.06;;;2.49;100.00
13209;BME280;6669;42.678;23.332;2022-12-18T05:32:49;95547.13;;;2.44;100.00
13209;BME280;6669;42.678;23.332;2022-12-18T05:35:17;95546.09;;;2.47;100.00
13209;BME280;6669;42.678;23.332;2022-12-18T05:37:46;95559.34;;;2.53;100.00
13209;BME280;6669;42.678;23.332;2022-12-18T05:40:14;95571.66;;;2.48;100.00
13209;BME280;6669;42.678;23.332;2022-12-18T05:42:42;95560.78;;;2.44;100.00
13209;BME280;6669;42.678;23.332;2022-12-18T05:45:10;95567.59;;;2.58;100.00
13209;BME280;6669;42.678;23.332;2022-12-18T05:47:38;95593.28;;;2.58;100.00
13209;BME280;6669;42.678;23.332;2022-12-18T05:50:08;95568.00;;;2.52;100.00
13209;BME280;6669;42.678;23.332;2022-12-18T05:52:40;95582.66;;;2.50;100.00
13209;BME280;6669;42.678;23.332;2022-12-18T05:55:15;95560.34;;;2.38;100.00
13209;BME280;6669;42.678;23.332;2022-12-18T05:57:46;95572.06;;;2.42;100.00
13209;BME280;6669;42.678;23.332;2022-12-18T06:00:16;95579.03;;;2.40;100.00
13209;BME280;6669;42.678;23.332;2022-12-18T06:02:46;95581.06;;;2.35;100.00
13209;BME280;6669;42.678;23.332;2022-12-18T06:05:15;95586.75;;;2.40;100.00
13209;BME280;6669;42.678;23.332;2022-12-18T06:07:46;95607.47;;;2.37;100.00
13209;BME280;6669;42.678;23.332;2022-12-18T06:10:21;95582.28;;;2.29;100.00
13209;BME280;6669;42.678;23.332;2022-12-18T06:12:49;95584.03;;;2.28;100.00
13209;BME280;6669;42.678;23.332;2022-12-18T06:15:17;95590.06;;;2.27;100.00
13209;BME280;6669;42.678;23.332;2022-12-18T06:17:46;95606.63;;;2.36;100.00
13209;BME280;6669;42.678;23.332;2022-12-18T06:20:29;95596.03;;;2.28;100.00
13209;BME280;6669;42.678;23.332;2022-12-18T06:23:07;95593.56;;;2.26;100.00
13209;BME280;6669;42.678;23.332;2022-12-18T06:25:54;95589.25;;;2.27;100.00
13209;BME280;6669;42.678;23.332;2022-12-18T06:28:23;95600.09;;;2.45;100.00
13209;BME280;6669;42.678;23.332;2022-12-18T06:30:52;95599.78;;;2.37;100.00
13209;BME280;6669;42.678;23.332;2022-12-18T06:33:35;95605.81;;;2.36;100.00
13209;BME280;6669;42.678;23.332;2022-12-18T06:36:07;95616.91;;;2.36;100.00
13209;BME280;6669;42.678;23.332;2022-12-18T06:38:42;95625.13;;;2.41;100.00
13209;BME280;6669;42.678;23.332;2022-12-18T06:41:15;95624.63;;;2.49;100.00
13209;BME280;6669;42.678;23.332;2022-12-18T06:43:44;95618.34;;;2.40;100.00
13209;BME280;6669;42.678;23.332;2022-12-18T06:46:15;95634.28;;;2.45;100.00
13209;BME280;6669;42.678;23.332;2022-12-18T06:48:47;95636.28;;;2.55;100.00
13209;BME280;6669;42.678;23.332;2022-12-18T06:51:23;95653.78;;;2.48;100.00
13209;BME280;6669;42.678;23.332;2022-12-18T06:53:51;95640.88;;;2.50;100.00
13209;BME280;6669;42.678;23.332;2022-12-18T06:56:21;95639.72;;;2.41;100.00
13209;BME280;6669;42.678;23.332;2022-12-18T06:59:04;95656.16;;;2.51;100.00
13209;BME280;6669;42.678;23.332;2022-12-18T07:01:36;95647.34;;;2.55;100.00
13209;BME280;6669;42.678;23.332;2022-12-18T07:04:13;95657.50;;;2.57;100.00
13209;BME280;6669;42.678;23.332;2022-12-18T07:06:49;95648.19;;;2.56;100.00
13209;BME280;6669;42.678;23.332;2022-12-18T07:09:17;95668.16;;;2.51;100.00
13209;BME280;6669;42.678;23.332;2022-12-18T07:11:48;95676.81;;;2.50;100.00
13209;BME280;6669;42.678;23.332;2022-12-18T07:14:16;95659.84;;;2.47;100.00
13209;BME280;6669;42.678;23.332;2022-12-18T07:16:50;95675.09;;;2.63;100.00
13209;BME280;6669;42.678;23.332;2022-12-18T07:19:19;95665.84;;;2.60;100.00
13209;BME280;6669;42.678;23.332;2022-12-18T07:22:02;95684.66;;;2.61;100.00
13209;BME280;6669;42.678;23.332;2022-12-18T07:24:45;95674.94;;;2.52;100.00
13209;BME280;6669;42.678;23.332;2022-12-18T07:27:30;95682.84;;;2.49;100.00
13209;BME280;6669;42.678;23.332;2022-12-18T07:29:59;95668.34;;;2.20;100.00
13209;BME280;6669;42.678;23.332;2022-12-18T07:32:55;95689.97;;;2.31;100.00
13209;BME280;6669;42.678;23.332;2022-12-18T07:35:23;95681.56;;;2.14;100.00
13209;BME280;6669;42.678;23.332;2022-12-18T07:37:52;95681.25;;;2.19;100.00
13209;BME280;6669;42.678;23.332;2022-12-18T07:40:20;95691.88;;;2.27;100.00
13209;BME280;6669;42.678;23.332;2022-12-18T07:42:52;95714.88;;;2.28;100.00
13209;BME280;6669;42.678;23.332;2022-12-18T07:45:21;95694.81;;;2.21;100.00
13209;BME280;6669;42.678;23.332;2022-12-18T07:47:49;95690.50;;;2.21;100.00
13209;BME280;6669;42.678;23.332;2022-12-18T07:50:17;95687.59;;;2.13;100.00
13209;BME280;6669;42.678;23.332;2022-12-18T07:52:59;95697.66;;;2.16;100.00
13209;BME280;6669;42.678;23.332;2022-12-18T07:55:32;95683.41;;;1.98;100.00
13209;BME280;6669;42.678;23.332;2022-12-18T07:58:58;95710.94;;;2.08;100.00
13209;BME280;6669;42.678;23.332;2022-12-18T08:01:27;95715.06;;;2.11;100.00
13209;BME280;6669;42.678;23.332;2022-12-18T08:03:57;95695.75;;;2.05;100.00
13209;BME280;6669;42.678;23.332;2022-12-18T08:06:25;95717.19;;;2.04;100.00
13209;BME280;6669;42.678;23.332;2022-12-18T08:08:57;95706.28;;;2.01;100.00
13209;BME280;6669;42.678;23.332;2022-12-18T08:11:57;95715.00;;;1.98;100.00
13209;BME280;6669;42.678;23.332;2022-12-18T08:14:34;95720.75;;;2.02;100.00
13209;BME280;6669;42.678;23.332;2022-12-18T08:17:06;95714.06;;;1.99;100.00
13209;BME280;6669;42.678;23.332;2022-12-18T08:19:49;95731.56;;;1.92;100.00
13209;BME280;6669;42.678;23.332;2022-12-18T08:22:36;95739.81;;;2.12;100.00
13209;BME280;6669;42.678;23.332;2022-12-18T08:25:38;95762.25;;;2.08;100.00
13209;BME280;6669;42.678;23.332;2022-12-18T08:28:22;95726.81;;;1.86;100.00
13209;BME280;6669;42.678;23.332;2022-12-18T08:34:51;95745.03;;;2.10;100.00
13209;BME280;6669;42.678;23.332;2022-12-18T08:37:33;95772.78;;;2.18;100.00
13209;BME280;6669;42.678;23.332;2022-12-18T08:40:29;95756.09;;;2.11;100.00
13209;BME280;6669;42.678;23.332;2022-12-18T08:43:12;95746.75;;;2.10;100.00
13209;BME280;6669;42.678;23.332;2022-12-18T08:46:00;95771.56;;;2.24;100.00
13209;BME280;6669;42.678;23.332;2022-12-18T08:48:56;95774.06;;;2.25;100.00
13209;BME280;6669;42.678;23.332;2022-12-18T08:52:08;95775.69;;;2.26;100.00
13209;BME280;6669;42.678;23.332;2022-12-18T08:55:05;95751.63;;;2.15;100.00
13209;BME280;6669;42.678;23.332;2022-12-18T08:58:05;95761.06;;;2.14;100.00
13209;BME280;6669;42.678;23.332;2022-12-18T09:01:02;95769.97;;;2.23;100.00
13209;BME280;6669;42.678;23.332;2022-12-18T09:03:58;95773.97;;;2.12;100.00
13209;BME280;6669;42.678;23.332;2022-12-18T09:06:54;95760.69;;;2.06;100.00
13209;BME280;6669;42.678;23.332;2022-12-18T09:13:19;95773.44;;;2.22;100.00
13209;BME280;6669;42.678;23.332;2022-12-18T09:15:56;95753.16;;;2.32;100.00
13209;BME280;6669;42.678;23.332;2022-12-18T09:18:38;95756.84;;;2.27;100.00
13209;BME280;6669;42.678;23.332;2022-12-18T09:21:10;95773.97;;;2.41;100.00
13209;BME280;6669;42.678;23.332;2022-12-18T09:23:50;95769.50;;;2.31;100.00
13209;BME280;6669;42.678;23.332;2022-12-18T09:26:54;95788.72;;;2.38;100.00
13209;BME280;6669;42.678;23.332;2022-12-18T09:36:47;95770.81;;;2.65;100.00
13209;BME280;6669;42.678;23.332;2022-12-18T09:39:30;95790.34;;;2.53;100.00
13209;BME280;6669;42.678;23.332;2022-12-18T09:42:01;95784.22;;;2.41;100.00
13209;BME280;6669;42.678;23.332;2022-12-18T09:44:45;95787.97;;;2.50;100.00
13209;BME280;6669;42.678;23.332;2022-12-18T09:47:23;95785.13;;;2.55;100.00
13209;BME280;6669;42.678;23.332;2022-12-18T09:49:58;95781.03;;;2.52;100.00
13209;BME280;6669;42.678;23.332;2022-12-18T09:52:33;95778.53;;;2.51;100.00
13209;BME280;6669;42.678;23.332;2022-12-18T09:55:10;95785.94;;;2.55;100.00
13209;BME280;6669;42.678;23.332;2022-12-18T09:58:05;95774.22;;;2.51;100.00
13209;BME280;6669;42.678;23.332;2022-12-18T10:00:56;95761.03;;;2.57;100.00
13209;BME280;6669;42.678;23.332;2022-12-18T10:03:33;95782.03;;;2.50;100.00
13209;BME280;6669;42.678;23.332;2022-12-18T10:06:20;95776.59;;;2.54;100.00
13209;BME280;6669;42.678;23.332;2022-12-18T10:09:20;95802.53;;;2.64;100.00
13209;BME280;6669;42.678;23.332;2022-12-18T10:12:00;95775.41;;;2.60;100.00
13209;BME280;6669;42.678;23.332;2022-12-18T10:14:39;95790.13;;;2.71;100.00
13209;BME280;6669;42.678;23.332;2022-12-18T10:17:31;95784.88;;;2.87;100.00
13209;BME280;6669;42.678;23.332;2022-12-18T10:20:37;95798.09;;;2.81;100.00
13209;BME280;6669;42.678;23.332;2022-12-18T10:23:13;95790.19;;;2.84;100.00
13209;BME280;6669;42.678;23.332;2022-12-18T10:26:08;95788.84;;;2.78;100.00
13209;BME280;6669;42.678;23.332;2022-12-18T10:28:41;95803.25;;;2.81;100.00
13209;BME280;6669;42.678;23.332;2022-12-18T10:31:17;95804.69;;;2.85;100.00
13209;BME280;6669;42.678;23.332;2022-12-18T10:33:54;95805.97;;;2.92;100.00
13209;BME280;6669;42.678;23.332;2022-12-18T10:36:23;95794.69;;;2.94;100.00
13209;BME280;6669;42.678;23.332;2022-12-18T10:38:52;95804.25;;;3.05;100.00
13209;BME280;6669;42.678;23.332;2022-12-18T10:41:41;95771.34;;;2.98;100.00
13209;BME280;6669;42.678;23.332;2022-12-18T10:44:16;95794.41;;;2.99;100.00
13209;BME280;6669;42.678;23.332;2022-12-18T10:46:49;95798.16;;;2.93;100.00
13209;BME280;6669;42.678;23.332;2022-12-18T10:49:22;95778.38;;;2.81;100.00
13209;BME280;6669;42.678;23.332;2022-12-18T10:52:22;95785.44;;;2.92;100.00
13209;BME280;6669;42.678;23.332;2022-12-18T10:55:18;95760.38;;;2.96;100.00
13209;BME280;6669;42.678;23.332;2022-12-18T10:58:26;95792.72;;;3.25;100.00
13209;BME280;6669;42.678;23.332;2022-12-18T11:01:23;95790.38;;;3.22;100.00
13209;BME280;6669;42.678;23.332;2022-12-18T11:04:02;95769.69;;;3.11;100.00
13209;BME280;6669;42.678;23.332;2022-12-18T11:07:06;95790.34;;;3.09;100.00
13209;BME280;6669;42.678;23.332;2022-12-18T11:09:36;95795.38;;;3.11;100.00
13209;BME280;6669;42.678;23.332;2022-12-18T11:12:15;95784.97;;;3.13;100.00
13209;BME280;6669;42.678;23.332;2022-12-18T11:14:57;95799.63;;;3.25;100.00
13209;BME280;6669;42.678;23.332;2022-12-18T11:17:31;95796.13;;;2.99;100.00
13209;BME280;6669;42.678;23.332;2022-12-18T11:20:03;95814.00;;;3.00;100.00
13209;BME280;6669;42.678;23.332;2022-12-18T11:22:36;95797.03;;;2.98;100.00
13209;BME280;6669;42.678;23.332;2022-12-18T11:25:19;95802.91;;;3.00;100.00
13209;BME280;6669;42.678;23.332;2022-12-18T11:28:03;95789.59;;;3.07;100.00
13209;BME280;6669;42.678;23.332;2022-12-18T11:30:36;95800.16;;;3.30;100.00
13209;BME280;6669;42.678;23.332;2022-12-18T11:33:08;95789.31;;;3.12;100.00
13209;BME280;6669;42.678;23.332;2022-12-18T11:35:43;95773.25;;;3.08;100.00
13209;BME280;6669;42.678;23.332;2022-12-18T11:38:21;95785.03;;;3.25;100.00
13209;BME280;6669;42.678;23.332;2022-12-18T11:40:56;95823.19;;;3.32;100.00
13209;BME280;6669;42.678;23.332;2022-12-18T11:43:29;95812.00;;;3.33;100.00
13209;BME280;6669;42.678;23.332;2022-12-18T11:46:04;95820.44;;;3.35;100.00
13209;BME280;6669;42.678;23.332;2022-12-18T11:48:37;95803.44;;;3.32;100.00
13209;BME280;6669;42.678;23.332;2022-12-18T11:51:13;95802.84;;;3.29;100.00
13209;BME280;6669;42.678;23.332;2022-12-18T11:53:43;95798.72;;;3.26;100.00
13209;BME280;6669;42.678;23.332;2022-12-18T11:56:32;95808.56;;;3.32;100.00
13209;BME280;6669;42.678;23.332;2022-12-18T11:59:07;95802.13;;;3.39;100.00
13209;BME280;6669;42.678;23.332;2022-12-18T12:01:47;95787.09;;;3.33;100.00
13209;BME280;6669;42.678;23.332;2022-12-18T12:04:45;95797.31;;;3.35;100.00
13209;BME280;6669;42.678;23.332;2022-12-18T12:07:27;95808.50;;;3.34;100.00
13209;BME280;6669;42.678;23.332;2022-12-18T12:10:12;95811.28;;;3.43;100.00
13209;BME280;6669;42.678;23.332;2022-12-18T12:12:59;95791.22;;;3.36;100.00
13209;BME280;6669;42.678;23.332;2022-12-18T12:15:41;95800.47;;;3.38;100.00
13209;BME280;6669;42.678;23.332;2022-12-18T12:18:23;95794.91;;;3.32;100.00
13209;BME280;6669;42.678;23.332;2022-12-18T12:21:01;95802.97;;;3.40;100.00
13209;BME280;6669;42.678;23.332;2022-12-18T12:23:37;95801.72;;;3.33;100.00
13209;BME280;6669;42.678;23.332;2022-12-18T12:26:11;95803.44;;;3.32;100.00
13209;BME280;6669;42.678;23.332;2022-12-18T12:28:51;95799.56;;;3.39;100.00
13209;BME280;6669;42.678;23.332;2022-12-18T12:31:31;95798.13;;;3.35;100.00
13209;BME280;6669;42.678;23.332;2022-12-18T12:34:09;95795.97;;;3.42;100.00
13209;BME280;6669;42.678;23.332;2022-12-18T12:36:57;95817.38;;;3.42;100.00
13209;BME280;6669;42.678;23.332;2022-12-18T12:39:31;95806.19;;;3.56;100.00
13209;BME280;6669;42.678;23.332;2022-12-18T12:42:01;95802.56;;;3.46;100.00
13209;BME280;6669;42.678;23.332;2022-12-18T12:44:51;95808.66;;;3.58;100.00
13209;BME280;6669;42.678;23.332;2022-12-18T12:47:28;95798.50;;;3.69;100.00
13209;BME280;6669;42.678;23.332;2022-12-18T12:50:04;95802.81;;;3.69;100.00
13209;BME280;6669;42.678;23.332;2022-12-18T12:52:41;95784.69;;;3.57;100.00
13209;BME280;6669;42.678;23.332;2022-12-18T12:55:16;95796.00;;;3.55;100.00
13209;BME280;6669;42.678;23.332;2022-12-18T12:57:55;95811.75;;;3.63;100.00
13209;BME280;6669;42.678;23.332;2022-12-18T13:00:38;95818.09;;;3.57;100.00
13209;BME280;6669;42.678;23.332;2022-12-18T13:03:28;95818.09;;;3.57;100.00
13209;BME280;6669;42.678;23.332;2022-12-18T13:06:16;95822.22;;;3.60;100.00
13209;BME280;6669;42.678;23.332;2022-12-18T13:08:55;95831.41;;;3.64;100.00
13209;BME280;6669;42.678;23.332;2022-12-18T13:11:39;95816.94;;;3.49;100.00
13209;BME280;6669;42.678;23.332;2022-12-18T13:14:39;95832.44;;;3.62;100.00
13209;BME280;6669;42.678;23.332;2022-12-18T13:17:16;95838.50;;;3.60;100.00
13209;BME280;6669;42.678;23.332;2022-12-18T13:20:12;95841.59;;;3.38;100.00
13209;BME280;6669;42.678;23.332;2022-12-18T13:22:51;95845.53;;;3.44;100.00
13209;BME280;6669;42.678;23.332;2022-12-18T13:25:36;95828.03;;;3.36;100.00
13209;BME280;6669;42.678;23.332;2022-12-18T13:28:11;95862.38;;;3.35;100.00
13209;BME280;6669;42.678;23.332;2022-12-18T13:30:54;95852.25;;;3.32;100.00
13209;BME280;6669;42.678;23.332;2022-12-18T13:33:47;95850.91;;;3.26;100.00
13209;BME280;6669;42.678;23.332;2022-12-18T13:36:37;95851.44;;;3.32;100.00
13209;BME280;6669;42.678;23.332;2022-12-18T13:39:25;95852.50;;;3.42;100.00
13209;BME280;6669;42.678;23.332;2022-12-18T13:45:45;95857.66;;;3.42;100.00
13209;BME280;6669;42.678;23.332;2022-12-18T13:48:38;95860.75;;;3.47;100.00
13209;BME280;6669;42.678;23.332;2022-12-18T13:51:10;95860.06;;;3.45;100.00
13209;BME280;6669;42.678;23.332;2022-12-18T13:53:44;95866.81;;;3.46;100.00
13209;BME280;6669;42.678;23.332;2022-12-18T13:56:16;95867.03;;;3.43;100.00
13209;BME280;6669;42.678;23.332;2022-12-18T13:59:03;95875.00;;;3.38;100.00
13209;BME280;6669;42.678;23.332;2022-12-18T14:01:34;95871.84;;;3.35;100.00
13209;BME280;6669;42.678;23.332;2022-12-18T14:04:09;95856.25;;;3.23;100.00
13209;BME280;6669;42.678;23.332;2022-12-18T14:06:38;95865.59;;;3.24;100.00